sensor_id;sensor_type;location;lat;lon;timestamp;temperature;humidity
38726;DHT22;24474;48.906;8.808;2023-02-15T00:01:35;1.20;99.90
38726;DHT22;24474;48.906;8.808;2023-02-15T00:04:04;1.20;99.90
38726;DHT22;24474;48.906;8.808;2023-02-15T00:06:30;1.20;99.90
38726;DHT22;24474;48.906;8.808;2023-02-15T00:08:56;1.20;99.90
38726;DHT22;24474;48.906;8.808;2023-02-15T00:11:22;1.20;99.90
38726;DHT22;24474;48.906;8.808;2023-02-15T00:14:15;1.20;99.90
38726;DHT22;24474;48.906;8.808;2023-02-15T00:16:43;1.20;99.90
38726;DHT22;24474;48.906;8.808;2023-02-15T00:19:10;1.20;99.90
38726;DHT22;24474;48.906;8.808;2023-02-15T00:21:37;1.20;99.90
38726;DHT22;24474;48.906;8.808;2023-02-15T00:24:04;1.10;99.90
38726;DHT22;24474;48.906;8.808;2023-02-15T00:26:30;1.10;99.90
38726;DHT22;24474;48.906;8.808;2023-02-15T00:28:57;1.20;99.90
38726;DHT22;24474;48.906;8.808;2023-02-15T00:31:27;1.10;99.90
38726;DHT22;24474;48.906;8.808;2023-02-15T00:33:52;1.10;99.90
38726;DHT22;24474;48.906;8.808;2023-02-15T00:36:18;1.20;99.90
38726;DHT22;24474;48.906;8.808;2023-02-15T00:38:44;1.10;99.90
38726;DHT22;24474;48.906;8.808;2023-02-15T00:41:10;1.10;99.90
38726;DHT22;24474;48.906;8.808;2023-02-15T00:43:36;1.10;99.90
38726;DHT22;24474;48.906;8.808;2023-02-15T00:46:03;1.10;99.90
38726;DHT22;24474;48.906;8.808;2023-02-15T00:48:29;1.10;99.90
38726;DHT22;24474;48.906;8.808;2023-02-15T00:50:58;1.10;99.90
38726;DHT22;24474;48.906;8.808;2023-02-15T00:53:25;1.10;99.90
38726;DHT22;24474;48.906;8.808;2023-02-15T00:55:50;1.00;99.90
38726;DHT22;24474;48.906;8.808;2023-02-15T00:58:16;1.00;99.90
38726;DHT22;24474;48.906;8.808;2023-02-15T01:00:43;1.00;99.90
38726;DHT22;24474;48.906;8.808;2023-02-15T01:03:10;1.00;99.90
38726;DHT22;24474;48.906;8.808;2023-02-15T01:05:36;1.00;99.90
38726;DHT22;24474;48.906;8.808;2023-02-15T01:08:02;1.00;99.90
38726;DHT22;24474;48.906;8.808;2023-02-15T01:10:28;0.90;99.90
38726;DHT22;24474;48.906;8.808;2023-02-15T01:12:54;0.90;99.90
38726;DHT22;24474;48.906;8.808;2023-02-15T01:15:20;0.90;99.90
38726;DHT22;24474;48.906;8.808;2023-02-15T01:17:46;0.90;99.90
38726;DHT22;24474;48.906;8.808;2023-02-15T01:20:20;0.90;99.90
38726;DHT22;24474;48.906;8.808;2023-02-15T01:22:46;0.90;99.90
38726;DHT22;24474;48.906;8.808;2023-02-15T01:25:15;0.90;99.90
38726;DHT22;24474;48.906;8.808;2023-02-15T01:27:41;0.90;99.90
38726;DHT22;24474;48.906;8.808;2023-02-15T01:30:07;0.90;99.90
38726;DHT22;24474;48.906;8.808;2023-02-15T01:32:34;0.90;99.90
38726;DHT22;24474;48.906;8.808;2023-02-15T01:35:00;0.90;99.90
38726;DHT22;24474;48.906;8.808;2023-02-15T01:37:25;0.90;99.90
38726;DHT22;24474;48.906;8.808;2023-02-15T01:39:51;0.90;99.90
38726;DHT22;24474;48.906;8.808;2023-02-15T01:42:22;0.90;99.90
38726;DHT22;24474;48.906;8.808;2023-02-15T01:44:59;0.90;99.90
38726;DHT22;24474;48.906;8.808;2023-02-15T01:47:44;0.90;99.90
38726;DHT22;24474;48.906;8.808;2023-02-15T01:50:27;0.90;99.90
38726;DHT22;24474;48.906;8.808;2023-02-15T01:56:06;0.90;99.90
38726;DHT22;24474;48.906;8.808;2023-02-15T01:58:34;0.90;99.90
38726;DHT22;24474;48.906;8.808;2023-02-15T02:01:01;0.90;99.90
38726;DHT22;24474;48.906;8.808;2023-02-15T02:06:27;0.80;99.90
38726;DHT22;24474;48.906;8.808;2023-02-15T02:08:53;0.70;99.90
38726;DHT22;24474;48.906;8.808;2023-02-15T02:11:19;0.70;99.90
38726;DHT22;24474;48.906;8.808;2023-02-15T02:13:46;0.70;99.90
38726;DHT22;24474;48.906;8.808;2023-02-15T02:16:18;0.80;99.90
38726;DHT22;24474;48.906;8.808;2023-02-15T02:19:05;0.70;99.90
38726;DHT22;24474;48.906;8.808;2023-02-15T02:21:57;0.70;99.90
38726;DHT22;24474;48.906;8.808;2023-02-15T02:27:48;0.70;99.90
38726;DHT22;24474;48.906;8.808;2023-02-15T02:38:38;0.70;99.90
38726;DHT22;24474;48.906;8.808;2023-02-15T02:41:55;0.70;99.90
38726;DHT22;24474;48.906;8.808;2023-02-15T02:44:02;0.70;99.90
38726;DHT22;24474;48.906;8.808;2023-02-15T02:46:39;0.60;99.90
38726;DHT22;24474;48.906;8.808;2023-02-15T02:49:06;0.60;99.90
38726;DHT22;24474;48.906;8.808;2023-02-15T02:51:32;0.60;99.90
38726;DHT22;24474;48.906;8.808;2023-02-15T02:54:01;0.60;99.90
38726;DHT22;24474;48.906;8.808;2023-02-15T02:56:49;0.60;99.90
38726;DHT22;24474;48.906;8.808;2023-02-15T02:59:19;0.50;99.90
38726;DHT22;24474;48.906;8.808;2023-02-15T03:01:48;0.50;99.90
38726;DHT22;24474;48.906;8.808;2023-02-15T03:04:18;0.50;99.90
38726;DHT22;24474;48.906;8.808;2023-02-15T03:07:00;0.50;99.90
38726;DHT22;24474;48.906;8.808;2023-02-15T03:09:38;0.50;99.90
38726;DHT22;24474;48.906;8.808;2023-02-15T03:12:16;0.50;99.90
38726;DHT22;24474;48.906;8.808;2023-02-15T03:14:46;0.40;99.90
38726;DHT22;24474;48.906;8.808;2023-02-15T03:17:15;0.40;99.90
38726;DHT22;24474;48.906;8.808;2023-02-15T03:19:43;0.40;99.90
38726;DHT22;24474;48.906;8.808;2023-02-15T03:22:33;0.40;99.90
38726;DHT22;24474;48.906;8.808;2023-02-15T03:27:27;0.30;99.90
38726;DHT22;24474;48.906;8.808;2023-02-15T03:29:57;0.20;99.90
38726;DHT22;24474;48.906;8.808;2023-02-15T03:32:25;0.20;99.90
38726;DHT22;24474;48.906;8.808;2023-02-15T03:34:53;0.10;99.90
38726;DHT22;24474;48.906;8.808;2023-02-15T03:39:56;0.10;99.90
38726;DHT22;24474;48.906;8.808;2023-02-15T03:42:44;0.10;99.90
38726;DHT22;24474;48.906;8.808;2023-02-15T03:45:15;0.10;99.90
38726;DHT22;24474;48.906;8.808;2023-02-15T03:47:46;0.10;99.90
38726;DHT22;24474;48.906;8.808;2023-02-15T03:50:30;0.10;99.90
38726;DHT22;24474;48.906;8.808;2023-02-15T03:53:26;0.10;99.90
38726;DHT22;24474;48.906;8.808;2023-02-15T03:55:55;0.10;99.90
38726;DHT22;24474;48.906;8.808;2023-02-15T03:58:21;0.10;99.90
38726;DHT22;24474;48.906;8.808;2023-02-15T04:01:13;0.00;99.90
38726;DHT22;24474;48.906;8.808;2023-02-15T04:04:11;-0.10;99.90
38726;DHT22;24474;48.906;8.808;2023-02-15T04:06:40;-0.10;99.90
38726;DHT22;24474;48.906;8.808;2023-02-15T04:09:08;-0.10;99.90
38726;DHT22;24474;48.906;8.808;2023-02-15T04:11:52;-0.10;99.90
38726;DHT22;24474;48.906;8.808;2023-02-15T04:14:18;-0.10;99.90
38726;DHT22;24474;48.906;8.808;2023-02-15T04:17:05;-0.20;99.90
38726;DHT22;24474;48.906;8.808;2023-02-15T04:19:31;-0.20;99.90
38726;DHT22;24474;48.906;8.808;2023-02-15T04:22:15;-0.30;99.90
38726;DHT22;24474;48.906;8.808;2023-02-15T04:24:59;-0.20;99.90
38726;DHT22;24474;48.906;8.808;2023-02-15T04:27:38;-0.20;99.90
38726;DHT22;24474;48.906;8.808;2023-02-15T04:30:05;-0.20;99.90
38726;DHT22;24474;48.906;8.808;2023-02-15T04:32:32;-0.20;99.90
38726;DHT22;24474;48.906;8.808;2023-02-15T04:34:58;-0.20;99.90
38726;DHT22;24474;48.906;8.808;2023-02-15T04:37:23;-0.30;99.90
38726;DHT22;24474;48.906;8.808;2023-02-15T04:39:49;-0.30;99.90
38726;DHT22;24474;48.906;8.808;2023-02-15T04:42:15;-0.30;99.90
38726;DHT22;24474;48.906;8.808;2023-02-15T04:44:41;-0.30;99.90
38726;DHT22;24474;48.906;8.808;2023-02-15T04:47:07;-0.30;99.90
38726;DHT22;24474;48.906;8.808;2023-02-15T04:49:33;-0.30;99.90
38726;DHT22;24474;48.906;8.808;2023-02-15T04:51:58;-0.30;99.90
38726;DHT22;24474;48.906;8.808;2023-02-15T04:54:24;-0.30;99.90
38726;DHT22;24474;48.906;8.808;2023-02-15T04:56:49;-0.30;99.90
38726;DHT22;24474;48.906;8.808;2023-02-15T04:59:15;-0.30;99.90
38726;DHT22;24474;48.906;8.808;2023-02-15T05:01:41;-0.30;99.90
38726;DHT22;24474;48.906;8.808;2023-02-15T05:04:07;-0.30;99.90
38726;DHT22;24474;48.906;8.808;2023-02-15T05:06:33;-0.30;99.90
38726;DHT22;24474;48.906;8.808;2023-02-15T05:08:58;-0.40;99.90
38726;DHT22;24474;48.906;8.808;2023-02-15T05:11:25;-0.40;99.90
38726;DHT22;24474;48.906;8.808;2023-02-15T05:13:51;-0.40;99.90
38726;DHT22;24474;48.906;8.808;2023-02-15T05:16:16;-0.40;99.90
38726;DHT22;24474;48.906;8.808;2023-02-15T05:18:42;-0.40;99.90
38726;DHT22;24474;48.906;8.808;2023-02-15T05:21:08;-0.40;99.90
38726;DHT22;24474;48.906;8.808;2023-02-15T05:23:34;-0.40;99.90
38726;DHT22;24474;48.906;8.808;2023-02-15T05:25:59;-0.50;99.90
38726;DHT22;24474;48.906;8.808;2023-02-15T05:28:44;-0.50;99.90
38726;DHT22;24474;48.906;8.808;2023-02-15T05:31:12;-0.50;99.90
38726;DHT22;24474;48.906;8.808;2023-02-15T05:33:38;-0.50;99.90
38726;DHT22;24474;48.906;8.808;2023-02-15T05:36:05;-0.50;99.90
38726;DHT22;24474;48.906;8.808;2023-02-15T05:38:31;-0.50;99.90
38726;DHT22;24474;48.906;8.808;2023-02-15T05:40:56;-0.50;99.90
38726;DHT22;24474;48.906;8.808;2023-02-15T05:43:22;-0.40;99.90
38726;DHT22;24474;48.906;8.808;2023-02-15T05:45:50;-0.50;99.90
38726;DHT22;24474;48.906;8.808;2023-02-15T05:48:17;-0.50;99.90
38726;DHT22;24474;48.906;8.808;2023-02-15T05:50:43;-0.50;99.90
38726;DHT22;24474;48.906;8.808;2023-02-15T05:53:09;-0.50;99.90
38726;DHT22;24474;48.906;8.808;2023-02-15T05:55:40;-0.50;99.90
38726;DHT22;24474;48.906;8.808;2023-02-15T05:58:07;-0.60;99.90
38726;DHT22;24474;48.906;8.808;2023-02-15T06:00:33;-0.60;99.90
38726;DHT22;24474;48.906;8.808;2023-02-15T06:02:59;-0.60;99.90
38726;DHT22;24474;48.906;8.808;2023-02-15T06:05:25;-0.60;99.90
38726;DHT22;24474;48.906;8.808;2023-02-15T06:07:50;-0.60;99.90
38726;DHT22;24474;48.906;8.808;2023-02-15T06:10:16;-0.60;99.90
38726;DHT22;24474;48.906;8.808;2023-02-15T06:12:43;-0.60;99.90
38726;DHT22;24474;48.906;8.808;2023-02-15T06:15:09;-0.60;99.90
38726;DHT22;24474;48.906;8.808;2023-02-15T06:17:34;-0.60;99.90
38726;DHT22;24474;48.906;8.808;2023-02-15T06:20:00;-0.70;99.90
38726;DHT22;24474;48.906;8.808;2023-02-15T06:22:26;-0.70;99.90
38726;DHT22;24474;48.906;8.808;2023-02-15T06:24:52;-0.70;99.90
38726;DHT22;24474;48.906;8.808;2023-02-15T06:27:18;-0.70;99.90
38726;DHT22;24474;48.906;8.808;2023-02-15T06:29:43;-0.70;99.90
38726;DHT22;24474;48.906;8.808;2023-02-15T06:32:09;-0.70;99.90
38726;DHT22;24474;48.906;8.808;2023-02-15T06:34:35;-0.70;99.90
38726;DHT22;24474;48.906;8.808;2023-02-15T06:37:01;-0.80;99.90
38726;DHT22;24474;48.906;8.808;2023-02-15T06:39:26;-0.80;99.90
38726;DHT22;24474;48.906;8.808;2023-02-15T06:41:52;-0.80;99.90
38726;DHT22;24474;48.906;8.808;2023-02-15T06:44:17;-0.80;99.90
38726;DHT22;24474;48.906;8.808;2023-02-15T06:46:43;-0.80;99.90
38726;DHT22;24474;48.906;8.808;2023-02-15T06:49:09;-0.80;99.90
38726;DHT22;24474;48.906;8.808;2023-02-15T06:51:35;-0.80;99.90
38726;DHT22;24474;48.906;8.808;2023-02-15T06:54:00;-0.70;99.90
38726;DHT22;24474;48.906;8.808;2023-02-15T06:56:26;-0.80;99.90
38726;DHT22;24474;48.906;8.808;2023-02-15T06:58:51;-0.80;99.90
38726;DHT22;24474;48.906;8.808;2023-02-15T07:01:18;-0.80;99.90
38726;DHT22;24474;48.906;8.808;2023-02-15T07:03:44;-0.80;99.90
38726;DHT22;24474;48.906;8.808;2023-02-15T07:06:10;-0.80;99.90
38726;DHT22;24474;48.906;8.808;2023-02-15T07:08:37;-0.80;99.90
38726;DHT22;24474;48.906;8.808;2023-02-15T07:11:04;-0.80;99.90
38726;DHT22;24474;48.906;8.808;2023-02-15T07:13:48;-0.80;99.90
38726;DHT22;24474;48.906;8.808;2023-02-15T07:16:14;-0.80;99.90
38726;DHT22;24474;48.906;8.808;2023-02-15T07:18:40;-0.80;99.90
38726;DHT22;24474;48.906;8.808;2023-02-15T07:21:06;-0.80;99.90
38726;DHT22;24474;48.906;8.808;2023-02-15T07:23:39;-0.80;99.90
38726;DHT22;24474;48.906;8.808;2023-02-15T07:26:05;-0.80;99.90
38726;DHT22;24474;48.906;8.808;2023-02-15T07:28:33;-0.90;99.90
38726;DHT22;24474;48.906;8.808;2023-02-15T07:31:01;-0.90;99.90
38726;DHT22;24474;48.906;8.808;2023-02-15T07:33:29;-0.90;99.90
38726;DHT22;24474;48.906;8.808;2023-02-15T07:35:57;-0.90;99.90
38726;DHT22;24474;48.906;8.808;2023-02-15T07:38:24;-0.90;99.90
38726;DHT22;24474;48.906;8.808;2023-02-15T07:40:50;-0.90;99.90
38726;DHT22;24474;48.906;8.808;2023-02-15T07:43:19;-0.90;99.90
38726;DHT22;24474;48.906;8.808;2023-02-15T07:45:45;-0.90;99.90
38726;DHT22;24474;48.906;8.808;2023-02-15T07:48:10;-0.90;99.90
38726;DHT22;24474;48.906;8.808;2023-02-15T07:50:36;-0.90;99.90
38726;DHT22;24474;48.906;8.808;2023-02-15T07:53:02;-0.90;99.90
38726;DHT22;24474;48.906;8.808;2023-02-15T07:55:28;-0.90;99.90
38726;DHT22;24474;48.906;8.808;2023-02-15T07:57:54;-0.90;99.90
38726;DHT22;24474;48.906;8.808;2023-02-15T08:00:21;-0.90;99.90
38726;DHT22;24474;48.906;8.808;2023-02-15T08:02:51;-0.90;99.90
38726;DHT22;24474;48.906;8.808;2023-02-15T08:05:40;-0.90;99.90
38726;DHT22;24474;48.906;8.808;2023-02-15T08:08:07;-0.80;99.90
38726;DHT22;24474;48.906;8.808;2023-02-15T08:10:33;-0.80;99.90
38726;DHT22;24474;48.906;8.808;2023-02-15T08:13:17;-0.80;99.90
38726;DHT22;24474;48.906;8.808;2023-02-15T08:15:53;-0.70;99.90
38726;DHT22;24474;48.906;8.808;2023-02-15T08:18:19;-0.80;99.90
38726;DHT22;24474;48.906;8.808;2023-02-15T08:20:51;-0.80;99.90
38726;DHT22;24474;48.906;8.808;2023-02-15T08:23:18;-0.80;99.90
38726;DHT22;24474;48.906;8.808;2023-02-15T08:25:44;-0.70;99.90
38726;DHT22;24474;48.906;8.808;2023-02-15T08:28:10;-0.70;99.90
38726;DHT22;24474;48.906;8.808;2023-02-15T08:30:37;-0.70;99.90
38726;DHT22;24474;48.906;8.808;2023-02-15T08:33:03;-0.70;99.90
38726;DHT22;24474;48.906;8.808;2023-02-15T08:35:31;-0.70;99.90
38726;DHT22;24474;48.906;8.808;2023-02-15T08:37:57;-0.60;99.90
38726;DHT22;24474;48.906;8.808;2023-02-15T08:40:23;-0.60;99.90
38726;DHT22;24474;48.906;8.808;2023-02-15T08:42:50;-0.60;99.90
38726;DHT22;24474;48.906;8.808;2023-02-15T08:45:15;-0.60;99.90
38726;DHT22;24474;48.906;8.808;2023-02-15T08:47:43;-0.50;99.90
38726;DHT22;24474;48.906;8.808;2023-02-15T08:50:09;-0.50;99.90
38726;DHT22;24474;48.906;8.808;2023-02-15T08:52:36;-0.50;99.90
38726;DHT22;24474;48.906;8.808;2023-02-15T08:55:03;-0.40;99.90
38726;DHT22;24474;48.906;8.808;2023-02-15T08:57:30;-0.40;99.90
38726;DHT22;24474;48.906;8.808;2023-02-15T08:59:56;-0.50;99.90
38726;DHT22;24474;48.906;8.808;2023-02-15T09:02:22;-0.40;99.90
38726;DHT22;24474;48.906;8.808;2023-02-15T09:04:49;-0.40;99.90
38726;DHT22;24474;48.906;8.808;2023-02-15T09:07:16;-0.40;99.90
38726;DHT22;24474;48.906;8.808;2023-02-15T09:09:44;-0.30;99.90
38726;DHT22;24474;48.906;8.808;2023-02-15T09:12:12;-0.30;99.90
38726;DHT22;24474;48.906;8.808;2023-02-15T09:14:37;-0.30;99.90
38726;DHT22;24474;48.906;8.808;2023-02-15T09:17:04;-0.30;99.90
38726;DHT22;24474;48.906;8.808;2023-02-15T09:19:31;-0.20;99.90
38726;DHT22;24474;48.906;8.808;2023-02-15T09:21:56;-0.20;99.90
38726;DHT22;24474;48.906;8.808;2023-02-15T09:24:23;-0.20;99.90
38726;DHT22;24474;48.906;8.808;2023-02-15T09:26:52;-0.30;99.90
38726;DHT22;24474;48.906;8.808;2023-02-15T09:29:18;-0.20;99.90
38726;DHT22;24474;48.906;8.808;2023-02-15T09:31:45;-0.20;99.90
38726;DHT22;24474;48.906;8.808;2023-02-15T09:34:16;-0.20;99.90
38726;DHT22;24474;48.906;8.808;2023-02-15T09:36:42;-0.20;99.90
38726;DHT22;24474;48.906;8.808;2023-02-15T09:47:54;-0.10;99.90
38726;DHT22;24474;48.906;8.808;2023-02-15T10:01:36;0.20;99.90
38726;DHT22;24474;48.906;8.808;2023-02-15T10:12:33;0.30;99.90
38726;DHT22;24474;48.906;8.808;2023-02-15T10:15:13;0.40;99.90
38726;DHT22;24474;48.906;8.808;2023-02-15T10:20:41;0.40;99.90
38726;DHT22;24474;48.906;8.808;2023-02-15T10:28:28;0.50;99.90
38726;DHT22;24474;48.906;8.808;2023-02-15T10:31:07;0.60;99.90
38726;DHT22;24474;48.906;8.808;2023-02-15T10:33:42;0.60;99.90
38726;DHT22;24474;48.906;8.808;2023-02-15T10:39:28;0.70;99.90
38726;DHT22;24474;48.906;8.808;2023-02-15T10:42:08;0.70;99.90
38726;DHT22;24474;48.906;8.808;2023-02-15T10:50:46;0.90;99.90
38726;DHT22;24474;48.906;8.808;2023-02-15T10:56:19;0.90;99.90
38726;DHT22;24474;48.906;8.808;2023-02-15T11:01:45;1.20;99.90
38726;DHT22;24474;48.906;8.808;2023-02-15T11:06:52;1.30;99.90
38726;DHT22;24474;48.906;8.808;2023-02-15T11:09:20;1.40;99.90
38726;DHT22;24474;48.906;8.808;2023-02-15T11:11:52;1.50;99.90
38726;DHT22;24474;48.906;8.808;2023-02-15T11:14:27;1.60;99.90
38726;DHT22;24474;48.906;8.808;2023-02-15T11:17:04;1.60;99.90
38726;DHT22;24474;48.906;8.808;2023-02-15T11:19:35;1.70;99.90
38726;DHT22;24474;48.906;8.808;2023-02-15T11:22:05;1.80;99.90
38726;DHT22;24474;48.906;8.808;2023-02-15T11:24:36;1.80;99.90
38726;DHT22;24474;48.906;8.808;2023-02-15T11:27:21;1.80;99.90
38726;DHT22;24474;48.906;8.808;2023-02-15T11:30:00;1.80;99.90
38726;DHT22;24474;48.906;8.808;2023-02-15T11:33:12;1.70;99.90
38726;DHT22;24474;48.906;8.808;2023-02-15T11:35:44;1.70;99.90
38726;DHT22;24474;48.906;8.808;2023-02-15T11:38:19;1.70;99.90
38726;DHT22;24474;48.906;8.808;2023-02-15T11:40:51;1.80;99.90
38726;DHT22;24474;48.906;8.808;2023-02-15T11:45:45;1.90;99.90
38726;DHT22;24474;48.906;8.808;2023-02-15T11:48:13;2.00;99.90
38726;DHT22;24474;48.906;8.808;2023-02-15T11:50:41;2.00;99.90
38726;DHT22;24474;48.906;8.808;2023-02-15T11:53:12;2.10;99.90
38726;DHT22;24474;48.906;8.808;2023-02-15T11:55:39;2.20;99.90
38726;DHT22;24474;48.906;8.808;2023-02-15T11:58:18;2.20;99.90
38726;DHT22;24474;48.906;8.808;2023-02-15T12:00:47;2.20;99.90
38726;DHT22;24474;48.906;8.808;2023-02-15T12:03:39;2.30;99.90
38726;DHT22;24474;48.906;8.808;2023-02-15T12:06:51;2.30;99.90
38726;DHT22;24474;48.906;8.808;2023-02-15T12:12:29;2.30;99.90
38726;DHT22;24474;48.906;8.808;2023-02-15T12:15:00;2.30;99.90
38726;DHT22;24474;48.906;8.808;2023-02-15T12:17:27;2.30;99.90
38726;DHT22;24474;48.906;8.808;2023-02-15T12:20:00;2.30;99.90
38726;DHT22;24474;48.906;8.808;2023-02-15T12:22:28;2.20;99.90
38726;DHT22;24474;48.906;8.808;2023-02-15T12:24:59;2.20;99.90
38726;DHT22;24474;48.906;8.808;2023-02-15T12:27:27;2.30;99.90
38726;DHT22;24474;48.906;8.808;2023-02-15T12:30:07;2.30;99.90
38726;DHT22;24474;48.906;8.808;2023-02-15T12:32:54;2.40;99.90
38726;DHT22;24474;48.906;8.808;2023-02-15T12:35:32;2.40;99.90
38726;DHT22;24474;48.906;8.808;2023-02-15T12:38:29;2.50;99.90
38726;DHT22;24474;48.906;8.808;2023-02-15T12:41:05;2.50;99.90
38726;DHT22;24474;48.906;8.808;2023-02-15T12:43:47;2.60;99.90
38726;DHT22;24474;48.906;8.808;2023-02-15T12:46:28;2.60;99.90
38726;DHT22;24474;48.906;8.808;2023-02-15T12:54:40;2.70;99.90
38726;DHT22;24474;48.906;8.808;2023-02-15T13:00:04;2.80;99.90
38726;DHT22;24474;48.906;8.808;2023-02-15T13:02:48;2.80;99.90
38726;DHT22;24474;48.906;8.808;2023-02-15T13:05:34;2.80;99.90
38726;DHT22;24474;48.906;8.808;2023-02-15T13:08:09;2.90;99.90
38726;DHT22;24474;48.906;8.808;2023-02-15T13:11:03;3.00;99.90
38726;DHT22;24474;48.906;8.808;2023-02-15T13:13:33;3.00;99.90
38726;DHT22;24474;48.906;8.808;2023-02-15T13:16:12;3.00;99.90
38726;DHT22;24474;48.906;8.808;2023-02-15T13:18:43;3.10;99.90
38726;DHT22;24474;48.906;8.808;2023-02-15T13:21:29;3.10;99.90
38726;DHT22;24474;48.906;8.808;2023-02-15T13:24:03;3.20;99.90
38726;DHT22;24474;48.906;8.808;2023-02-15T13:26:32;3.20;99.90
38726;DHT22;24474;48.906;8.808;2023-02-15T13:29:08;3.20;99.90
38726;DHT22;24474;48.906;8.808;2023-02-15T13:31:39;3.30;99.90
38726;DHT22;24474;48.906;8.808;2023-02-15T13:34:39;3.30;99.90
38726;DHT22;24474;48.906;8.808;2023-02-15T13:40:30;3.40;99.90
38726;DHT22;24474;48.906;8.808;2023-02-15T13:58:14;3.60;99.90
38726;DHT22;24474;48.906;8.808;2023-02-15T14:12:09;3.70;99.90
38726;DHT22;24474;48.906;8.808;2023-02-15T14:20:44;3.70;99.90
38726;DHT22;24474;48.906;8.808;2023-02-15T14:26:43;3.80;99.90
38726;DHT22;24474;48.906;8.808;2023-02-15T14:32:18;3.90;99.90
38726;DHT22;24474;48.906;8.808;2023-02-15T14:34:52;3.90;99.90
38726;DHT22;24474;48.906;8.808;2023-02-15T14:43:07;4.20;99.90
38726;DHT22;24474;48.906;8.808;2023-02-15T14:48:55;4.30;99.90
38726;DHT22;24474;48.906;8.808;2023-02-15T14:59:56;4.40;99.90
38726;DHT22;24474;48.906;8.808;2023-02-15T15:02:48;4.40;99.90
38726;DHT22;24474;48.906;8.808;2023-02-15T15:05:29;4.40;99.90
38726;DHT22;24474;48.906;8.808;2023-02-15T15:07:59;4.40;99.90
38726;DHT22;24474;48.906;8.808;2023-02-15T15:10:35;4.40;99.90
38726;DHT22;24474;48.906;8.808;2023-02-15T15:19:10;4.40;99.90
38726;DHT22;24474;48.906;8.808;2023-02-15T15:32:48;4.60;99.90
38726;DHT22;24474;48.906;8.808;2023-02-15T15:39:04;4.60;99.90
38726;DHT22;24474;48.906;8.808;2023-02-15T15:50:44;4.60;99.90
38726;DHT22;24474;48.906;8.808;2023-02-15T15:53:23;4.70;99.90
38726;DHT22;24474;48.906;8.808;2023-02-15T15:55:52;4.60;99.90
38726;DHT22;24474;48.906;8.808;2023-02-15T15:58:20;4.70;99.90
38726;DHT22;24474;48.906;8.808;2023-02-15T16:00:51;4.70;99.90
38726;DHT22;24474;48.906;8.808;2023-02-15T16:03:25;4.70;99.90
38726;DHT22;24474;48.906;8.808;2023-02-15T16:05:51;4.70;99.90
38726;DHT22;24474;48.906;8.808;2023-02-15T16:08:35;4.70;99.90
38726;DHT22;24474;48.906;8.808;2023-02-15T16:11:29;4.60;99.90
38726;DHT22;24474;48.906;8.808;2023-02-15T16:13:55;4.60;99.90
38726;DHT22;24474;48.906;8.808;2023-02-15T16:16:24;4.60;99.90
38726;DHT22;24474;48.906;8.808;2023-02-15T16:18:51;4.60;99.90
38726;DHT22;24474;48.906;8.808;2023-02-15T16:21:20;4.50;99.90
38726;DHT22;24474;48.906;8.808;2023-02-15T16:29:52;4.40;99.90
38726;DHT22;24474;48.906;8.808;2023-02-15T16:32:27;4.40;99.90
38726;DHT22;24474;48.906;8.808;2023-02-15T16:37:26;4.40;99.90
38726;DHT22;24474;48.906;8.808;2023-02-15T16:39:56;4.30;99.90
38726;DHT22;24474;48.906;8.808;2023-02-15T16:42:22;4.30;99.90
38726;DHT22;24474;48.906;8.808;2023-02-15T16:45:08;4.30;99.90
38726;DHT22;24474;48.906;8.808;2023-02-15T16:47:44;4.30;99.90
38726;DHT22;24474;48.906;8.808;2023-02-15T16:50:19;4.20;99.90
38726;DHT22;24474;48.906;8.808;2023-02-15T16:52:48;4.20;99.90
38726;DHT22;24474;48.906;8.808;2023-02-15T16:55:23;4.20;99.90
38726;DHT22;24474;48.906;8.808;2023-02-15T16:57:49;4.20;99.90
38726;DHT22;24474;48.906;8.808;2023-02-15T17:00:21;4.10;99.90
38726;DHT22;24474;48.906;8.808;2023-02-15T17:02:59;4.20;99.90
38726;DHT22;24474;48.906;8.808;2023-02-15T17:05:47;4.10;99.90
38726;DHT22;24474;48.906;8.808;2023-02-15T17:08:18;4.00;99.90
38726;DHT22;24474;48.906;8.808;2023-02-15T17:11:20;4.00;99.90
38726;DHT22;24474;48.906;8.808;2023-02-15T17:14:13;4.00;99.90
38726;DHT22;24474;48.906;8.808;2023-02-15T17:16:59;4.00;99.90
38726;DHT22;24474;48.906;8.808;2023-02-15T17:19:32;4.00;99.90
38726;DHT22;24474;48.906;8.808;2023-02-15T17:22:01;3.90;99.90
38726;DHT22;24474;48.906;8.808;2023-02-15T17:24:38;3.90;99.90
38726;DHT22;24474;48.906;8.808;2023-02-15T17:27:07;3.80;99.90
38726;DHT22;24474;48.906;8.808;2023-02-15T17:29:44;3.80;99.90
38726;DHT22;24474;48.906;8.808;2023-02-15T17:32:24;3.80;99.90
38726;DHT22;24474;48.906;8.808;2023-02-15T17:35:35;3.80;99.90
38726;DHT22;24474;48.906;8.808;2023-02-15T17:40:22;3.80;99.90
38726;DHT22;24474;48.906;8.808;2023-02-15T17:42:48;3.80;99.90
38726;DHT22;24474;48.906;8.808;2023-02-15T17:45:14;3.80;99.90
38726;DHT22;24474;48.906;8.808;2023-02-15T17:47:41;3.80;99.90
38726;DHT22;24474;48.906;8.808;2023-02-15T17:50:07;3.80;99.90
38726;DHT22;24474;48.906;8.808;2023-02-15T17:52:35;3.70;99.90
38726;DHT22;24474;48.906;8.808;2023-02-15T17:55:08;3.70;99.90
38726;DHT22;24474;48.906;8.808;2023-02-15T17:57:55;3.60;99.90
38726;DHT22;24474;48.906;8.808;2023-02-15T18:00:21;3.60;99.90
38726;DHT22;24474;48.906;8.808;2023-02-15T18:03:09;3.50;99.90
38726;DHT22;24474;48.906;8.808;2023-02-15T18:05:54;3.50;99.90
38726;DHT22;24474;48.906;8.808;2023-02-15T18:08:38;3.50;99.90
38726;DHT22;24474;48.906;8.808;2023-02-15T18:11:22;3.40;99.90
38726;DHT22;24474;48.906;8.808;2023-02-15T18:14:08;3.40;99.90
38726;DHT22;24474;48.906;8.808;2023-02-15T18:16:36;3.40;99.90
38726;DHT22;24474;48.906;8.808;2023-02-15T18:19:04;3.40;99.90
38726;DHT22;24474;48.906;8.808;2023-02-15T18:21:31;3.30;99.90
38726;DHT22;24474;48.906;8.808;2023-02-15T18:23:57;3.30;99.90
38726;DHT22;24474;48.906;8.808;2023-02-15T18:26:24;3.30;99.90
38726;DHT22;24474;48.906;8.808;2023-02-15T18:28:51;3.20;99.90
38726;DHT22;24474;48.906;8.808;2023-02-15T18:31:18;3.20;99.90
38726;DHT22;24474;48.906;8.808;2023-02-15T18:33:53;3.20;99.90
38726;DHT22;24474;48.906;8.808;2023-02-15T18:36:32;3.20;99.90
38726;DHT22;24474;48.906;8.808;2023-02-15T18:39:00;3.20;99.90
38726;DHT22;24474;48.906;8.808;2023-02-15T18:41:27;3.10;99.90
38726;DHT22;24474;48.906;8.808;2023-02-15T18:43:53;3.10;99.90
38726;DHT22;24474;48.906;8.808;2023-02-15T18:46:20;3.10;99.90
38726;DHT22;24474;48.906;8.808;2023-02-15T18:48:46;3.10;99.90
38726;DHT22;24474;48.906;8.808;2023-02-15T18:51:20;3.10;99.90
38726;DHT22;24474;48.906;8.808;2023-02-15T18:53:49;3.00;99.90
38726;DHT22;24474;48.906;8.808;2023-02-15T18:56:17;3.00;99.90
38726;DHT22;24474;48.906;8.808;2023-02-15T18:58:44;2.90;99.90
38726;DHT22;24474;48.906;8.808;2023-02-15T19:01:15;2.90;99.90
38726;DHT22;24474;48.906;8.808;2023-02-15T19:03:44;2.90;99.90
38726;DHT22;24474;48.906;8.808;2023-02-15T19:06:11;2.80;99.90
38726;DHT22;24474;48.906;8.808;2023-02-15T19:08:38;2.80;99.90
38726;DHT22;24474;48.906;8.808;2023-02-15T19:11:04;2.80;99.90
38726;DHT22;24474;48.906;8.808;2023-02-15T19:13:30;2.80;99.90
38726;DHT22;24474;48.906;8.808;2023-02-15T19:15:59;2.80;99.90
38726;DHT22;24474;48.906;8.808;2023-02-15T19:18:24;2.70;99.90